Valley Forge, PA (19481)

12:30 PM EDT on August 30, 2014 (GMT -0400)
Valley Forge (Mount Misery) | Change Station
CLOSE
Current Station
Personal Weather Station
Location: Valley Forge, PA
Elevation: 456 ft
Nearby Weather Stations

Elev 456 ft 40.09 °N, 75.48 °W | Updated 10 minutes ago

Overcast
Overcast
70.5 °F
Feels Like 70 °F
N
-
Wind Variable Wind from North

Today
High -- | Low -- °F
--% Chance of Precip.
Yesterday
High -- | Low -- °F
Precip. -- in
6:27 AM 7:36 PM
Waxing Crescent, 23% visible
Pressure 30.26 in
Visibility 10.0 miles
Clouds Mostly Cloudy 2500 ft
Overcast 4000 ft
Heat Index 70 °F
Dew Point 64 °F
Humidity 83%
Rainfall -999.00 in
Snow Depth Not available.
UV 3 out of 12
Pollen 9.40 out of 12
Air Quality Not available.
Flu Activity Not available.
SPECI KPTW 301612Z AUTO 20007KT 10SM BKN025 OVC040 22/16 A3026 RMK AO2 T02220161

More Conditions Fewer Conditions

Pressure 30.26 in
Visibility 10.0 miles
Clouds Mostly Cloudy 2500 ft
Overcast 4000 ft
Heat Index 70 °F
Dew Point 64 °F
Humidity 83%
Rainfall -999.00 in
Snow Depth Not available.
UV 3 out of 12
Pollen 9.40 out of 12
Air Quality Not available.
Flu Activity Not available.
SPECI KPTW 301612Z AUTO 20007KT 10SM BKN025 OVC040 22/16 A3026 RMK AO2 T02220161

More Conditions Fewer Conditions

10-Day Weather Forecast

Almanac

Astronomy

Aug. 30, 2014 Rise Set
Actual Time 6:27 AM EDT 7:36 PM EDT
Civil Twilight 5:59 AM EDT 8:04 PM EDT
Nautical Twilight 5:26 AM EDT 8:37 PM EDT
Astronomical Twilight 4:51 AM EDT 9:12 PM EDT
Moon 11:13 AM EDT 10:09 PM EDT
Length of Visible Light 14h 04m
Length of Day
13h 08m
Tomorrow will be 2m 31s shorter.
Waxing Crescent, 23% of the Moon is Illuminated
Today
Waxing Crescent
Sep 2
First Quarter
Sep 8
Full
Sep 15
Last Quarter
Sep 24
New

Today's Extremes

State Highs State Lows

Community

WunderPhotos

Upload Photos

1,748,557 photos uploaded!

WunderBlogs® & News

Nearby

Snow Depth

Station Depth Elevation
No new snow has been reported.

Earthquake Activity

City Distance Mag. Time & Date
No recent earthquake activity has been reported nearby.
Minimum magnitude displayed is 2.5.

Coastal Water Temperatures

Place Temperature
Ship John Shoal, NJ 75.9 °F
Cape May, NJ 79.0 °F
Reedy Point, DE 78.1 °F
Delaware City, DE 77.0 °F
Marcus Hook, PA 78.1 °F

Nearby Weather Stations